Time;durP1;ratioP1;P1;durP2;ratioP2;P2;SDS_P1;SDS_P2;PMS_P1;PMS_P2;Temp;Humidity;BMP_temperature;BMP_pressure;BME280_temperature;BME280_humidity;BME280_pressure;Samples;Min_cycle;Max_cycle;Signal;HPM_P1;HPM_P2
2024/03/16 00:01:27;;;;;;;34.28;16.95;;;230.90;2252.80;;;;;;5051234;28;20037;-77
2024/03/16 00:03:52;;;;;;;;;;;230.90;2252.80;;;;;;5033585;28;20017;-76
2024/03/16 00:06:18;;;;;;;34.17;16.30;;;230.90;2252.80;;;;;;5067582;28;19912;-76
2024/03/16 00:08:44;;;;;;;23.23;13.88;;;230.90;2252.80;;;;;;5069845;28;20039;-84
2024/03/16 00:11:10;;;;;;;28.70;15.13;;;230.90;2252.80;;;;;;5048801;28;20036;-75
2024/03/16 00:13:36;;;;;;;24.48;15.10;;;230.80;2252.80;;;;;;5068185;28;20493;-76
2024/03/16 00:16:02;;;;;;;;;;;230.80;2252.80;;;;;;5071088;28;20064;-78
2024/03/16 00:18:28;;;;;;;31.70;15.75;;;230.70;2252.80;;;;;;5032838;28;19913;-83
2024/03/16 00:20:55;;;;;;;29.45;15.60;;;230.60;2252.80;;;;;;5052371;28;20563;-76
2024/03/16 00:23:21;;;;;;;26.58;14.82;;;230.70;2252.80;;;;;;5043658;28;20082;-77
2024/03/16 00:25:47;;;;;;;28.90;15.38;;;230.70;2252.80;;;;;;5062936;28;20025;-79
2024/03/16 00:28:13;;;;;;;29.90;15.60;;;230.60;2252.80;;;;;;5067933;28;20031;-76
2024/03/16 00:30:38;;;;;;;;;;;230.60;2252.80;;;;;;5059113;28;20025;-76
2024/03/16 00:33:07;;;;;;;26.77;15.48;;;230.50;2252.80;;;;;;5061101;28;19943;-83
2024/03/16 00:35:33;;;;;;;32.97;17.35;;;230.50;2252.80;;;;;;5061978;28;20028;-77
2024/03/16 00:37:59;;;;;;;28.73;17.17;;;230.50;2252.80;;;;;;5043153;28;20098;-75
2024/03/16 00:40:24;;;;;;;37.10;18.35;;;230.50;2252.80;;;;;;5050387;28;20037;-75
2024/03/16 00:42:50;;;;;;;28.83;16.88;;;230.50;2252.80;;;;;;5071491;28;20378;-74
2024/03/16 00:45:16;;;;;;;34.15;18.48;;;230.50;2252.80;;;;;;5066565;28;20031;-74
2024/03/16 00:47:43;;;;;;;36.55;19.27;;;230.50;2252.80;;;;;;5068646;28;20032;-74
2024/03/16 00:50:09;;;;;;;35.08;18.52;;;230.50;2252.80;;;;;;5063401;28;20537;-75
2024/03/16 00:52:35;;;;;;;33.83;17.83;;;230.50;2252.80;;;;;;5068935;28;20036;-77
2024/03/16 00:55:03;;;;;;;29.40;16.45;;;230.60;2252.80;;;;;;5060536;28;20031;-75
2024/03/16 00:57:29;;;;;;;31.92;16.13;;;230.40;2252.80;;;;;;5047350;28;20383;-74
2024/03/16 00:59:55;;;;;;;31.35;15.55;;;205.40;2252.80;;;;;;5057436;28;20021;-75
2024/03/16 01:02:20;;;;;;;;;;;205.30;2252.80;;;;;;5032363;28;20037;-77
2024/03/16 01:04:46;;;;;;;25.45;14.70;;;205.20;2252.80;;;;;;5065366;28;19912;-75
2024/03/16 01:07:12;;;;;;;31.17;15.55;;;205.10;2252.80;;;;;;5038690;28;20125;-76
2024/03/16 01:09:38;;;;;;;31.35;17.13;;;205.00;2252.80;;;;;;5070880;28;20052;-76
2024/03/16 01:12:04;;;;;;;30.85;16.17;;;205.00;2252.80;;;;;;5063016;28;20020;-75
2024/03/16 01:14:30;;;;;;;28.10;15.70;;;205.20;2252.80;;;;;;5046360;28;20033;-76
2024/03/16 01:16:55;;;;;;;;;;;205.00;2252.80;;;;;;5068002;28;20025;-76
2024/03/16 01:19:21;;;;;;;31.75;16.25;;;205.00;2252.80;;;;;;5043887;28;19908;-76
2024/03/16 01:21:47;;;;;;;;;;;204.80;2252.80;;;;;;5059725;28;20033;-77
2024/03/16 01:24:13;;;;;;;32.47;16.35;;;180.10;2252.80;;;;;;5068318;28;19931;-80
2024/03/16 01:26:38;;;;;;;31.95;17.10;;;180.10;2252.80;;;;;;5030765;28;20024;-75
2024/03/16 01:29:05;;;;;;;;;;;180.00;2252.80;;;;;;5066710;28;20052;-75
2024/03/16 01:31:31;;;;;;;30.23;16.27;;;180.00;2252.80;;;;;;5041939;28;19912;-83
2024/03/16 01:33:56;;;;;;;;;;;180.00;2252.80;;;;;;5063485;28;20265;-77
2024/03/16 01:36:23;;;;;;;26.20;14.77;;;180.00;2252.80;;;;;;5067309;28;19909;-75
2024/03/16 01:38:49;;;;;;;28.67;16.15;;;179.90;2252.80;;;;;;5051594;28;20074;-76
2024/03/16 01:41:14;;;;;;;30.38;16.42;;;179.80;2252.80;;;;;;5060302;28;20044;-76
2024/03/16 01:43:46;;;;;;;30.20;16.48;;;179.70;2252.80;;;;;;5065758;28;20025;-75
2024/03/16 01:46:15;;;;;;;27.42;15.73;;;179.50;2252.80;;;;;;5044711;28;20060;-76
2024/03/16 01:48:44;;;;;;;31.35;16.20;;;179.70;2252.80;;;;;;5061470;28;20021;-75
2024/03/16 01:51:10;;;;;;;32.28;16.30;;;179.60;2252.80;;;;;;5046263;28;20024;-77
2024/03/16 01:53:38;;;;;;;30.05;16.33;;;179.50;2252.80;;;;;;5036472;28;20063;-78
2024/03/16 01:56:04;;;;;;;24.75;15.27;;;179.50;2252.80;;;;;;5054061;28;20351;-77
2024/03/16 01:58:37;;;;;;;38.78;16.60;;;179.50;2252.80;;;;;;5053940;28;20116;-76
2024/03/16 02:01:03;;;;;;;30.27;16.85;;;179.50;2252.80;;;;;;5035086;28;20032;-77
2024/03/16 02:03:29;;;;;;;37.05;16.55;;;179.60;2252.80;;;;;;5053259;28;20032;-81
2024/03/16 02:05:55;;;;;;;29.85;16.27;;;179.60;2252.80;;;;;;5035122;28;20120;-78
2024/03/16 02:08:20;;;;;;;32.58;16.33;;;179.90;2252.80;;;;;;5034875;28;20128;-76
2024/03/16 02:10:46;;;;;;;;;;;204.80;2252.80;;;;;;5053890;28;20029;-82
2024/03/16 02:13:12;;;;;;;40.17;20.27;;;204.90;2252.80;;;;;;5034793;28;19905;-75
2024/03/16 02:15:38;;;;;;;45.25;23.50;;;204.90;2252.80;;;;;;5053253;28;20029;-76
2024/03/16 02:18:04;;;;;;;38.60;23.05;;;205.00;2252.80;;;;;;5055703;28;20036;-76
2024/03/16 02:20:31;;;;;;;39.25;19.48;;;205.10;2252.80;;;;;;5056650;28;20028;-75
2024/03/16 02:22:57;;;;;;;34.13;19.70;;;205.10;2252.80;;;;;;5055595;28;20111;-75
2024/03/16 02:25:23;;;;;;;35.08;19.67;;;205.00;2252.80;;;;;;5056717;28;20155;-77
2024/03/16 02:27:48;;;;;;;;;;;205.00;2252.80;;;;;;5057041;28;20108;-77
2024/03/16 02:30:15;;;;;;;30.38;15.85;;;205.10;2252.80;;;;;;5046091;28;20404;-76
2024/03/16 02:32:40;;;;;;;36.08;17.20;;;205.00;2252.80;;;;;;5055331;28;20017;-76
2024/03/16 02:35:08;;;;;;;29.60;15.85;;;204.90;2252.80;;;;;;5055759;28;20033;-75
2024/03/16 02:37:34;;;;;;;30.60;15.73;;;204.80;2252.80;;;;;;5055394;28;20029;-75
2024/03/16 02:40:00;;;;;;;36.13;16.30;;;180.00;2252.80;;;;;;5041925;28;20371;-78
2024/03/16 02:42:27;;;;;;;30.00;16.52;;;179.90;2252.80;;;;;;5056746;28;20035;-76
2024/03/16 02:44:53;;;;;;;27.70;14.93;;;180.00;2252.80;;;;;;5050997;28;20035;-76
2024/03/16 02:47:20;;;;;;;27.83;15.38;;;179.80;2252.80;;;;;;5055297;28;20031;-80
2024/03/16 02:49:49;;;;;;;29.25;14.63;;;179.60;2252.80;;;;;;5056484;28;20463;-78
2024/03/16 02:52:15;;;;;;;32.63;17.23;;;179.50;2252.80;;;;;;5056288;28;20043;-76
2024/03/16 02:54:41;;;;;;;33.67;16.88;;;179.50;2252.80;;;;;;5041961;28;20074;-77
2024/03/16 02:57:06;;;;;;;36.92;16.73;;;179.40;2252.80;;;;;;5056426;28;20033;-77
2024/03/16 02:59:32;;;;;;;;;;;179.20;2252.80;;;;;;5055574;28;21507;-78
2024/03/16 03:01:58;;;;;;;25.75;14.60;;;179.30;2252.80;;;;;;5056298;28;19920;-76
2024/03/16 03:04:24;;;;;;;;;;;154.50;2252.80;;;;;;5055294;28;20112;-76
2024/03/16 03:06:49;;;;;;;27.00;15.82;;;154.10;2252.80;;;;;;5066275;28;19912;-77
2024/03/16 03:09:17;;;;;;;;;;;154.00;2252.80;;;;;;5055956;28;20429;-77
2024/03/16 03:11:43;;;;;;;32.90;16.48;;;153.90;2252.80;;;;;;5056074;28;19958;-79
2024/03/16 03:14:10;;;;;;;;;;;153.90;2252.80;;;;;;5054362;28;20041;-75
2024/03/16 03:16:36;;;;;;;26.33;14.32;;;154.10;2252.80;;;;;;5055960;28;19904;-78
2024/03/16 03:19:01;;;;;;;33.03;15.85;;;154.10;2252.80;;;;;;5055997;28;20036;-78
2024/03/16 03:21:29;;;;;;;31.50;16.52;;;154.30;2252.80;;;;;;5055962;28;20032;-77
2024/03/16 03:23:55;;;;;;;27.65;16.40;;;154.40;2252.80;;;;;;5041188;28;20033;-84
2024/03/16 03:26:22;;;;;;;;;;;154.40;2252.80;;;;;;5056325;28;20505;-77
2024/03/16 03:28:48;;;;;;;34.10;16.63;;;154.50;2252.80;;;;;;5055523;28;19908;-75
2024/03/16 03:31:14;;;;;;;;;;;154.40;2252.80;;;;;;5054684;28;20040;-78
2024/03/16 03:33:40;;;;;;;34.80;16.77;;;154.50;2252.80;;;;;;5055542;28;20417;-76
2024/03/16 03:36:05;;;;;;;;;;;154.50;2252.80;;;;;;5055901;28;20095;-76
2024/03/16 03:38:31;;;;;;;34.70;16.98;;;179.30;2252.80;;;;;;5055302;28;20385;-76
2024/03/16 03:40:57;;;;;;;;;;;154.50;2252.80;;;;;;5054567;28;20048;-77
2024/03/16 03:43:24;;;;;;;33.00;15.68;;;154.50;2252.80;;;;;;5040518;28;19905;-83
2024/03/16 03:45:52;;;;;;;31.13;16.45;;;154.40;2252.80;;;;;;5055552;28;20367;-83
2024/03/16 03:50:55;;;;;;;30.85;16.88;;;154.00;2252.80;;;;;;5055310;28;20471;-76
2024/03/16 03:53:22;;;;;;;32.60;17.45;;;153.90;2252.80;;;;;;5054695;28;20071;-78
2024/03/16 03:55:49;;;;;;;35.42;17.42;;;153.90;2252.80;;;;;;5055050;28;20056;-83
2024/03/16 03:58:15;;;;;;;32.80;17.45;;;153.90;2252.80;;;;;;5054820;28;20029;-76
2024/03/16 04:00:44;;;;;;;35.05;18.10;;;154.10;2252.80;;;;;;5054975;28;20033;-76
2024/03/16 04:03:11;;;;;;;36.03;18.45;;;154.20;2252.80;;;;;;5055081;28;20075;-75
2024/03/16 04:05:36;;;;;;;34.53;17.52;;;154.10;2252.80;;;;;;5054098;28;20116;-82
2024/03/16 04:08:04;;;;;;;;;;;154.00;2252.80;;;;;;5053253;28;20144;-78
2024/03/16 04:10:30;;;;;;;32.47;18.15;;;153.90;2252.80;;;;;;5053638;28;19908;-83
2024/03/16 04:12:56;;;;;;;;;;;154.00;2252.80;;;;;;5055323;28;20025;-75
2024/03/16 04:15:22;;;;;;;38.13;19.17;;;154.10;2252.80;;;;;;5054689;28;19912;-78
2024/03/16 04:17:48;;;;;;;39.97;19.27;;;154.10;2252.80;;;;;;5054724;28;20025;-83
2024/03/16 04:20:14;;;;;;;;;;;154.20;2252.80;;;;;;5055147;28;20032;-77
2024/03/16 04:22:41;;;;;;;31.17;17.48;;;154.30;2252.80;;;;;;5041411;28;19909;-81
2024/03/16 04:25:09;;;;;;;31.35;17.65;;;154.30;2252.80;;;;;;5053290;28;20390;-80
2024/03/16 04:27:35;;;;;;;41.17;19.75;;;154.30;2252.80;;;;;;5054612;28;20025;-76
2024/03/16 04:30:08;;;;;;;37.03;18.50;;;154.20;2252.80;;;;;;5029125;28;20027;-81
2024/03/16 04:32:38;;;;;;;34.55;18.45;;;154.20;2252.80;;;;;;5034450;28;20014;-75
2024/03/16 04:35:04;;;;;;;31.65;17.27;;;154.20;2252.80;;;;;;5049525;28;20104;-77
2024/03/16 04:37:30;;;;;;;34.55;19.52;;;154.50;2252.80;;;;;;5052562;28;20017;-75
2024/03/16 04:39:57;;;;;;;32.92;17.67;;;154.50;2252.80;;;;;;5042319;28;20037;-76
2024/03/16 04:42:23;;;;;;;36.55;18.67;;;154.50;2252.80;;;;;;5054086;28;20130;-76
2024/03/16 04:44:48;;;;;;;36.97;19.63;;;154.50;2252.80;;;;;;5054200;28;20021;-76
2024/03/16 04:47:14;;;;;;;;;;;154.40;2252.80;;;;;;5054473;28;20500;-78
2024/03/16 04:49:40;;;;;;;34.58;19.52;;;154.40;2252.80;;;;;;5069039;28;19904;-76
2024/03/16 04:52:15;;;;;;;41.40;19.75;;;154.30;2252.80;;;;;;5054330;28;20029;-82
2024/03/16 04:54:41;;;;;;;35.58;19.48;;;154.30;2252.80;;;;;;5054206;28;20050;-82
2024/03/16 04:57:07;;;;;;;;;;;154.40;2252.80;;;;;;5054564;28;20075;-76
2024/03/16 04:59:32;;;;;;;40.60;19.95;;;154.40;2252.80;;;;;;5053929;28;20259;-76
2024/03/16 05:01:58;;;;;;;;;;;154.30;2252.80;;;;;;5054632;28;20041;-75
2024/03/16 05:04:24;;;;;;;39.90;21.10;;;154.40;2252.80;;;;;;5053841;28;19994;-83
2024/03/16 05:06:50;;;;;;;;;;;154.40;2252.80;;;;;;5052641;28;20048;-76
2024/03/16 05:09:17;;;;;;;33.30;19.73;;;154.50;2252.80;;;;;;5053501;28;19928;-76
2024/03/16 05:11:44;;;;;;;36.55;20.02;;;154.50;2252.80;;;;;;5036767;28;20025;-75
2024/03/16 05:14:10;;;;;;;39.75;21.60;;;179.30;2252.80;;;;;;5053763;28;20017;-82
2024/03/16 05:16:36;;;;;;;;;;;179.30;2252.80;;;;;;5054141;28;20023;-76
2024/03/16 05:19:04;;;;;;;42.35;21.33;;;179.50;2252.80;;;;;;5053378;28;19991;-75
2024/03/16 05:21:36;;;;;;;34.95;20.08;;;179.60;2252.80;;;;;;5053456;28;20033;-78
2024/03/16 05:24:03;;;;;;;38.33;20.63;;;179.70;2252.80;;;;;;5053240;28;20082;-75
2024/03/16 05:26:30;;;;;;;36.75;19.95;;;179.70;2252.80;;;;;;5053291;28;20196;-77
2024/03/16 05:28:57;;;;;;;40.17;21.50;;;179.90;2252.80;;;;;;5037001;28;20028;-75
2024/03/16 05:31:23;;;;;;;33.75;20.20;;;180.10;2252.80;;;;;;5053421;28;20055;-76
2024/03/16 05:33:49;;;;;;;44.13;21.60;;;204.90;2252.80;;;;;;5053187;28;20094;-75
2024/03/16 05:36:18;;;;;;;40.67;20.98;;;205.00;2252.80;;;;;;5053304;28;20036;-76
2024/03/16 05:38:45;;;;;;;46.92;25.58;;;205.20;2252.80;;;;;;5050784;28;20071;-75
2024/03/16 05:41:12;;;;;;;46.08;22.55;;;205.30;2252.80;;;;;;5052539;28;20067;-78
2024/03/16 05:43:38;;;;;;;38.38;20.50;;;205.30;2252.80;;;;;;5052882;28;20017;-77
2024/03/16 05:46:04;;;;;;;36.20;20.88;;;205.40;2252.80;;;;;;5053212;28;20025;-76
2024/03/16 05:48:30;;;;;;;36.75;21.25;;;205.40;2252.80;;;;;;5053031;28;20017;-82
2024/03/16 05:50:56;;;;;;;;;;;205.40;2252.80;;;;;;5036152;28;20021;-75
2024/03/16 05:53:23;;;;;;;36.28;21.10;;;205.50;2252.80;;;;;;5068607;28;20354;-82
2024/03/16 05:55:50;;;;;;;42.20;22.08;;;205.40;2252.80;;;;;;5057545;28;20067;-78
2024/03/16 05:58:16;;;;;;;40.95;20.83;;;205.50;2252.80;;;;;;5057328;28;20009;-77
2024/03/16 06:00:42;;;;;;;47.05;26.10;;;205.60;2252.80;;;;;;5057063;28;20032;-76
2024/03/16 06:03:08;;;;;;;46.75;26.17;;;205.70;2252.80;;;;;;5055840;28;20029;-77
2024/03/16 06:05:37;;;;;;;42.22;24.75;;;230.50;2252.80;;;;;;5055924;28;20021;-78
2024/03/16 06:08:07;;;;;;;37.75;22.48;;;230.60;2252.80;;;;;;5056686;28;20049;-83
2024/03/16 06:10:34;;;;;;;43.08;24.52;;;230.60;2252.80;;;;;;5051395;28;20028;-75
2024/03/16 06:13:00;;;;;;;40.60;24.20;;;230.80;2252.80;;;;;;5065502;28;20037;-77
2024/03/16 06:15:26;;;;;;;43.08;24.40;;;230.90;2252.80;;;;;;5070116;28;20484;-79
2024/03/16 06:17:52;;;;;;;39.33;23.10;;;230.90;2252.80;;;;;;5074680;28;20119;-75
2024/03/16 06:20:18;;;;;;;;;;;231.00;2252.80;;;;;;5069243;28;20437;-75
2024/03/16 06:22:48;;;;;;;38.58;21.38;;;231.10;2252.80;;;;;;5063298;28;19912;-76
2024/03/16 06:25:14;;;;;;;36.35;20.52;;;231.10;2252.80;;;;;;5049242;28;20504;-78
2024/03/16 06:27:43;;;;;;;37.30;21.23;;;231.20;2252.80;;;;;;5070085;28;20028;-76
2024/03/16 06:30:13;;;;;;;38.97;23.30;;;231.20;2252.80;;;;;;5058298;28;20476;-76
2024/03/16 06:32:44;;;;;;;40.40;22.25;;;256.10;2252.80;;;;;;5063248;28;20108;-77
2024/03/16 06:35:12;;;;;;;39.75;23.33;;;256.60;2252.80;;;;;;5069479;28;20036;-76
2024/03/16 06:37:38;;;;;;;36.70;20.25;;;256.40;2252.80;;;;;;5063497;28;20109;-77
2024/03/16 06:40:05;;;;;;;34.75;21.80;;;256.50;2252.80;;;;;;5062642;28;20040;-76
2024/03/16 06:42:31;;;;;;;39.10;23.35;;;256.70;2252.80;;;;;;5071945;28;20059;-77
2024/03/16 06:44:56;;;;;;;38.70;22.75;;;256.90;2252.80;;;;;;5071590;28;20466;-78
2024/03/16 06:47:22;;;;;;;36.70;20.52;;;281.70;2278.40;;;;;;5050146;28;20040;-77
2024/03/16 06:49:49;;;;;;;;;;;281.90;2278.40;;;;;;5057596;28;20032;-77
2024/03/16 06:52:24;;;;;;;;;;;281.90;2278.40;;;;;;5056694;28;19916;-77
2024/03/16 06:54:52;;;;;;;33.83;18.67;;;282.00;2278.40;;;;;;5040120;28;19909;-76
2024/03/16 06:57:18;;;;;;;34.45;21.02;;;282.20;2278.40;;;;;;5075731;28;20473;-77
2024/03/16 06:59:44;;;;;;;32.33;20.40;;;282.10;2278.40;;;;;;5058611;28;20031;-81
2024/03/16 07:02:10;;;;;;;33.78;19.70;;;282.20;2278.40;;;;;;5058492;28;20036;-81
2024/03/16 07:04:36;;;;;;;;;;;282.10;2278.40;;;;;;5058481;28;20056;-79
2024/03/16 07:07:02;;;;;;;37.13;22.40;;;282.10;2278.40;;;;;;5057899;28;19912;-81
2024/03/16 07:09:28;;;;;;;35.58;20.35;;;282.20;2278.40;;;;;;5054937;28;20082;-76
2024/03/16 07:11:53;;;;;;;32.72;19.38;;;282.20;2278.40;;;;;;5054746;28;20021;-81
2024/03/16 07:14:19;;;;;;;33.13;20.63;;;282.30;2278.40;;;;;;5055946;28;20021;-76
2024/03/16 07:16:45;;;;;;;36.42;20.35;;;282.40;2278.40;;;;;;5055836;28;20064;-78
2024/03/16 07:19:11;;;;;;;34.08;21.00;;;282.40;2278.40;;;;;;5055578;28;20017;-73
2024/03/16 07:21:38;;;;;;;30.95;18.45;;;307.20;2304.00;;;;;;5055714;28;20394;-73
2024/03/16 07:24:04;;;;;;;33.15;19.00;;;307.40;2304.00;;;;;;5055577;28;20088;-75
2024/03/16 07:26:30;;;;;;;36.58;20.48;;;307.60;2304.00;;;;;;5055583;28;20099;-78
2024/03/16 07:28:56;;;;;;;30.50;18.65;;;307.70;2304.00;;;;;;5055436;28;20025;-73
2024/03/16 07:31:22;;;;;;;32.10;18.10;;;307.80;2304.00;;;;;;5052234;28;20033;-79
2024/03/16 07:33:48;;;;;;;32.28;21.08;;;307.80;2304.00;;;;;;5036916;28;20116;-74
2024/03/16 07:36:14;;;;;;;33.38;17.95;;;307.90;2304.00;;;;;;5055132;28;20025;-74
2024/03/16 07:38:39;;;;;;;36.08;20.33;;;308.10;2304.00;;;;;;5053421;28;20025;-76
2024/03/16 07:41:05;;;;;;;;;;;308.00;2304.00;;;;;;5055461;28;20032;-76
2024/03/16 07:43:31;;;;;;;33.90;19.30;;;332.80;2329.60;;;;;;5054612;28;20374;-76
2024/03/16 07:45:57;;;;;;;32.92;18.83;;;332.90;2329.60;;;;;;5055189;28;20025;-75
2024/03/16 07:48:25;;;;;;;30.38;18.20;;;333.00;2329.60;;;;;;5055086;28;20079;-74
2024/03/16 07:51:03;;;;;;;30.00;16.63;;;333.00;2329.60;;;;;;5054859;28;20021;-75
2024/03/16 07:53:31;;;;;;;31.20;17.88;;;333.10;2329.60;;;;;;5053774;28;20071;-74
2024/03/16 07:55:58;;;;;;;30.85;19.55;;;333.40;2329.60;;;;;;5053193;28;20031;-74
2024/03/16 07:58:27;;;;;;;32.28;19.35;;;333.60;2329.60;;;;;;5055152;28;20055;-81
2024/03/16 08:00:53;;;;;;;32.58;18.17;;;358.50;2329.60;;;;;;5053530;28;20079;-74
2024/03/16 08:03:18;;;;;;;29.65;18.88;;;358.50;2329.60;;;;;;5054501;28;20514;-75
2024/03/16 08:05:44;;;;;;;28.60;17.88;;;358.40;2329.60;;;;;;5054264;28;20025;-74
2024/03/16 08:08:11;;;;;;;28.77;18.63;;;358.50;2329.60;;;;;;5054488;28;20498;-74
2024/03/16 08:10:36;;;;;;;34.55;19.10;;;358.60;2329.60;;;;;;5054783;28;20013;-74
2024/03/16 08:13:02;;;;;;;32.42;18.13;;;358.70;2329.60;;;;;;5054576;28;20383;-73
2024/03/16 08:15:28;;;;;;;28.92;17.85;;;358.80;2329.60;;;;;;5053591;28;20100;-75
2024/03/16 08:17:56;;;;;;;32.85;18.05;;;358.90;2329.60;;;;;;5054305;28;20029;-74
2024/03/16 08:20:22;;;;;;;29.35;17.88;;;359.10;2329.60;;;;;;5068974;28;20479;-72
2024/03/16 08:22:53;;;;;;;30.52;19.05;;;384.30;2329.60;;;;;;5054087;28;20505;-74
2024/03/16 08:25:22;;;;;;;26.45;17.08;;;359.20;2329.60;;;;;;5054270;28;20025;-75
2024/03/16 08:27:48;;;;;;;30.27;19.75;;;359.20;2329.60;;;;;;5036260;28;20083;-73
2024/03/16 08:30:14;;;;;;;30.85;19.55;;;384.00;2329.60;;;;;;5054142;28;20405;-73
2024/03/16 08:32:40;;;;;;;29.08;17.48;;;384.20;2329.60;;;;;;5053815;28;20359;-78
2024/03/16 08:35:07;;;;;;;43.58;20.25;;;384.30;2329.60;;;;;;5054131;28;20100;-73
2024/03/16 08:37:33;;;;;;;29.83;18.23;;;384.40;2329.60;;;;;;5053875;28;20029;-74
2024/03/16 08:39:59;;;;;;;28.75;18.10;;;384.40;2329.60;;;;;;5062023;28;20056;-72
2024/03/16 08:42:25;;;;;;;30.08;18.38;;;384.40;2329.60;;;;;;5069130;28;20124;-74
2024/03/16 08:44:51;;;;;;;29.55;18.40;;;384.40;2329.60;;;;;;5071906;28;20020;-78
2024/03/16 08:47:17;;;;;;;29.52;18.38;;;384.70;2329.60;;;;;;5064835;28;20031;-73
2024/03/16 08:49:43;;;;;;;30.42;19.23;;;384.70;2329.60;;;;;;5056101;28;20021;-79
2024/03/16 08:52:09;;;;;;;25.05;17.13;;;384.90;2329.60;;;;;;5062048;28;20033;-74
2024/03/16 08:54:35;;;;;;;33.22;17.75;;;409.60;2355.20;;;;;;5068825;28;20021;-75
2024/03/16 08:57:03;;;;;;;25.63;18.42;;;409.70;2355.20;;;;;;5067845;28;20040;-80
2024/03/16 08:59:29;;;;;;;28.90;19.17;;;384.90;2329.60;;;;;;5062697;28;20078;-75
2024/03/16 09:01:55;;;;;;;43.20;19.25;;;409.60;2355.20;;;;;;5063518;28;20028;-73
2024/03/16 09:04:21;;;;;;;23.70;16.20;;;409.60;2355.20;;;;;;5066732;28;20347;-74
2024/03/16 09:06:47;;;;;;;24.70;16.13;;;409.60;2355.20;;;;;;5062704;28;20052;-74
2024/03/16 09:09:15;;;;;;;27.65;18.23;;;409.60;2355.20;;;;;;5070951;28;20036;-74
2024/03/16 09:11:41;;;;;;;27.73;17.77;;;409.70;2355.20;;;;;;5051553;28;20439;-74
2024/03/16 09:14:07;;;;;;;31.80;18.70;;;409.80;2355.20;;;;;;5046414;28;20440;-75
2024/03/16 09:16:40;;;;;;;28.15;18.45;;;410.00;2355.20;;;;;;5066807;28;20023;-73
2024/03/16 09:19:06;;;;;;;30.25;16.95;;;410.10;2355.20;;;;;;5066124;28;20043;-74
2024/03/16 09:21:32;;;;;;;25.17;15.02;;;410.20;2355.20;;;;;;5064192;28;20028;-76
2024/03/16 09:23:58;;;;;;;23.83;14.75;;;410.20;2278.40;;;;;;5067780;28;21104;-72
2024/03/16 09:26:23;;;;;;;22.02;15.27;;;410.20;2355.20;;;;;;5067974;28;20040;-74
2024/03/16 09:28:51;;;;;;;24.52;17.30;;;410.50;2278.40;;;;;;5061779;28;20021;-74
2024/03/16 09:31:17;;;;;;;22.98;15.35;;;410.50;2355.20;;;;;;5065489;28;20398;-74
2024/03/16 09:33:43;;;;;;;28.63;16.92;;;435.20;2355.20;;;;;;5056714;28;20020;-75
2024/03/16 09:36:09;;;;;;;26.98;15.07;;;435.30;2304.00;;;;;;5065389;28;20439;-75
2024/03/16 09:38:35;;;;;;;23.83;15.05;;;435.20;2150.40;;;;;;5055140;28;20630;-73
2024/03/16 09:41:02;;;;;;;22.73;15.05;;;435.30;2227.20;;;;;;5066394;28;20077;-78
2024/03/16 09:43:33;;;;;;;25.63;15.15;;;435.40;2252.80;;;;;;5064840;28;20028;-73
2024/03/16 09:46:00;;;;;;;23.60;15.68;;;435.60;2176.00;;;;;;5060589;28;20528;-74
2024/03/16 09:48:27;;;;;;;22.63;15.25;;;435.90;2201.60;;;;;;5066279;28;20470;-75
2024/03/16 09:50:55;;;;;;;18.60;12.82;;;436.00;2073.60;;;;;;5070409;28;20823;-74
2024/03/16 09:53:30;;;;;;;22.13;13.85;;;460.80;2048.00;;;;;;5064614;28;20029;-78
2024/03/16 09:55:57;;;;;;;25.08;13.18;;;460.80;2048.00;;;;;;5061741;28;20028;-80
2024/03/16 09:58:26;;;;;;;22.38;14.30;;;461.00;1971.20;;;;;;5045901;28;20145;-77
2024/03/16 10:00:55;;;;;;;21.90;13.45;;;461.00;1971.20;;;;;;5067030;28;20029;-79
2024/03/16 10:03:21;;;;;;;30.13;14.27;;;460.90;1868.80;;;;;;5065266;28;20036;-78
2024/03/16 10:05:48;;;;;;;19.50;13.68;;;460.80;1971.20;;;;;;5043839;28;20032;-77
2024/03/16 10:08:22;;;;;;;44.90;15.18;;;436.10;1996.80;;;;;;5063185;28;20094;-76
2024/03/16 10:10:48;;;;;;;27.25;13.75;;;435.90;2073.60;;;;;;5043349;28;20076;-78
2024/03/16 10:13:15;;;;;;;19.50;12.50;;;435.90;1996.80;;;;;;5043291;28;20025;-77
2024/03/16 10:15:44;;;;;;;36.15;16.95;;;435.90;2073.60;;;;;;5062091;28;20478;-77
2024/03/16 10:18:11;;;;;;;19.88;11.23;;;436.10;1996.80;;;;;;5066814;28;20421;-78
2024/03/16 10:20:37;;;;;;;18.52;12.48;;;436.00;1945.60;;;;;;5041666;28;20033;-78
2024/03/16 10:23:10;;;;;;;20.77;11.20;;;436.00;1945.60;;;;;;5045374;28;20031;-78
2024/03/16 10:25:37;;;;;;;16.75;11.35;;;435.90;1868.80;;;;;;5068641;28;20473;-77
2024/03/16 10:28:07;;;;;;;19.80;12.25;;;435.90;1868.80;;;;;;5045881;28;20032;-79
2024/03/16 10:30:35;;;;;;;17.63;10.50;;;436.00;1843.20;;;;;;5065124;28;20024;-79
2024/03/16 10:33:02;;;;;;;17.58;12.68;;;460.80;1843.20;;;;;;5045395;28;20040;-77
2024/03/16 10:35:33;;;;;;;21.45;11.85;;;461.10;1868.80;;;;;;5060253;28;20024;-78
2024/03/16 10:37:59;;;;;;;15.32;9.13;;;461.30;1740.80;;;;;;5068311;28;20104;-77
2024/03/16 10:40:25;;;;;;;15.95;9.68;;;461.50;1689.60;;;;;;5065642;28;20021;-77
2024/03/16 10:42:53;;;;;;;18.48;10.23;;;461.60;1664.00;;;;;;5071584;28;20036;-77
2024/03/16 10:45:20;;;;;;;13.50;9.40;;;486.40;1740.80;;;;;;5063859;28;20477;-78
2024/03/16 10:47:53;;;;;;;13.00;9.15;;;486.40;1664.00;;;;;;5068226;28;20028;-78
2024/03/16 10:50:24;;;;;;;15.88;9.25;;;486.50;1664.00;;;;;;5062545;28;20420;-80
2024/03/16 10:52:51;;;;;;;23.92;11.52;;;486.50;1612.80;;;;;;5065167;28;20027;-79
2024/03/16 10:55:22;;;;;;;16.75;11.18;;;486.60;1612.80;;;;;;5069643;28;20104;-78
2024/03/16 10:57:56;;;;;;;17.08;9.40;;;486.70;1587.20;;;;;;5071455;28;20416;-78
2024/03/16 11:00:34;;;;;;;16.63;10.35;;;486.70;1587.20;;;;;;5045232;28;20430;-76
2024/03/16 11:03:07;;;;;;;15.30;9.80;;;486.90;1561.60;;;;;;5043658;28;20041;-78
2024/03/16 11:05:35;;;;;;;15.30;9.25;;;487.00;1612.80;;;;;;5073327;28;20020;-76
2024/03/16 11:08:23;;;;;;;89.78;14.60;;;487.20;1587.20;;;;;;5072371;28;20037;-76
2024/03/16 11:10:49;;;;;;;14.63;6.72;;;487.20;1536.00;;;;;;5046486;28;20060;-76
2024/03/16 11:13:16;;;;;;;11.88;7.60;;;487.30;1484.80;;;;;;5064177;28;20029;-79
2024/03/16 11:15:46;;;;;;;13.95;7.78;;;512.20;1459.20;;;;;;5065145;28;20421;-75
2024/03/16 11:18:21;;;;;;;23.95;8.25;;;512.30;1484.80;;;;;;5061231;28;20074;-75
2024/03/16 11:20:50;;;;;;;10.18;6.43;;;512.30;1510.40;;;;;;5068587;28;20036;-76
2024/03/16 11:23:30;;;;;;;10.30;7.20;;;512.20;1484.80;;;;;;5067960;28;20021;-78
2024/03/16 11:26:27;;;;;;;10.25;7.38;;;512.20;1484.80;;;;;;5067805;28;20033;-76
2024/03/16 11:29:08;;;;;;;12.73;7.65;;;512.30;1433.60;;;;;;5054530;28;20024;-77
2024/03/16 11:31:39;;;;;;;23.05;8.82;;;512.30;1459.20;;;;;;5052723;28;20052;-77
2024/03/16 11:34:08;;;;;;;10.75;7.40;;;512.30;1459.20;;;;;;5047470;28;20025;-77
2024/03/16 11:36:41;;;;;;;9.25;7.05;;;512.50;1433.60;;;;;;5068633;28;20028;-79
2024/03/16 11:39:11;;;;;;;10.50;7.20;;;512.60;1382.40;;;;;;5061073;28;20554;-78
2024/03/16 11:41:44;;;;;;;12.90;7.85;;;512.60;1433.60;;;;;;5053563;28;20040;-78
2024/03/16 11:44:15;;;;;;;10.95;7.25;;;512.70;1433.60;;;;;;5071462;28;20025;-77
2024/03/16 11:46:46;;;;;;;15.02;7.55;;;512.30;1433.60;;;;;;5068753;28;20059;-76
2024/03/16 11:49:16;;;;;;;11.13;6.28;;;512.50;1382.40;;;;;;5046533;28;20111;-77
2024/03/16 11:51:48;;;;;;;11.40;6.90;;;512.50;1408.00;;;;;;5064621;28;20027;-78
2024/03/16 11:54:17;;;;;;;10.18;6.40;;;512.00;1459.20;;;;;;5043755;28;20104;-78
2024/03/16 11:56:44;;;;;;;10.77;6.82;;;512.00;1459.20;;;;;;5057442;28;20024;-77
2024/03/16 11:59:15;;;;;;;11.60;7.15;;;512.00;1408.00;;;;;;5064826;28;20476;-80
2024/03/16 12:01:43;;;;;;;12.75;7.57;;;512.00;1408.00;;;;;;5067435;28;20371;-78
2024/03/16 12:04:12;;;;;;;12.45;6.20;;;487.30;1459.20;;;;;;5042192;28;20166;-79
2024/03/16 12:06:40;;;;;;;11.07;7.40;;;487.30;1433.60;;;;;;5036356;28;20055;-77
2024/03/16 12:09:15;;;;;;;9.60;6.57;;;487.20;1433.60;;;;;;5059588;28;20037;-79
2024/03/16 12:11:50;;;;;;;9.40;6.55;;;487.20;1459.20;;;;;;5035667;28;20020;-78
2024/03/16 12:14:18;;;;;;;11.27;7.00;;;487.10;1484.80;;;;;;5070699;28;20049;-78